Nearby METAR Reports

 

KMTN - Baltimore/Martin, Maryland, USA
Distance from station: SSE 8mi, 13km
Updated: Thu, 18-Dec-2014 1:45pm EST
Mostly cloudy
Mostly cloudy
 Wind from W
Wind: W 20 mph , 31 km/h
Temperature: 39°F , 4°C
Wind Chill: 29°F , -2°C
Dew Point: 25°F , -4°C
Humidity: 56%
Barometer: 30.10 inHg , 1019.3 hPa
Clouds: Mostly cloudy
Visibility: 10 miles , 16 km
Cloud details: Mostly cloudy 3900 ft
2014/12/18 18:45 KMTN 181845Z 27017KT 10SM BKN039 04/M04 A3010
KDMH - Baltimore/Dwntwn, Maryland, USA
Distance from station: SW 12mi, 19km
Updated: Thu, 18-Dec-2014 1:54pm EST

 
Temperature: 37°F , 3°C
Dew Point: 21°F , -6°C
Humidity: 52%
Barometer: 30.09 inHg , 1019 hPa
2014/12/18 18:54 KDMH 181854Z AUTO 03/M06 A3009 RMK AO1 SLP190 T00281061
 
KBWI - Balto/Wash Intl, Maryland, USA
Distance from station: SSW 20mi, 33km
Updated: Thu, 18-Dec-2014 1:54pm EST
Mostly cloudy
Mostly cloudy
 Wind from WNW
Wind: WNW 14 mph , 22 km/h
Temperature: 37°F , 3°C
Wind Chill: 28°F , -2°C
Dew Point: 21°F , -6°C
Humidity: 52%
Barometer: 30.09 inHg , 1019 hPa
Clouds: Mostly cloudy
Visibility: 10 miles , 16 km
Cloud details: Mostly cloudy 3800 ft
Mostly cloudy 16000 ft
Mostly cloudy 25000 ft
2014/12/18 18:54 KBWI 181854Z 30012KT 10SM BKN038 BKN160 BKN250 03/M06 A3009 RMK AO2 SLP189 T00331056
KDMW - Carroll Cnty, Maryland, USA
Distance from station: WNW 30mi, 48km
Updated: Thu, 18-Dec-2014 2:10pm EST
Overcast
Overcast
 Wind from WNW
Wind: WNW 12 mph , 19 km/h, Gust: 17 mph , 28 km/h
Temperature: 36°F , 2°C
Wind Chill: 28°F , -2°C
Dew Point: 21°F , -6°C
Humidity: 56%
Barometer: 30.06 inHg , 1017.9 hPa
Clouds: Overcast
Visibility: 10 miles , 16 km
Cloud details: Overcast 3200 ft
2014/12/18 19:10 KDMW 181910Z AUTO 30010G15KT 10SM OVC032 02/M06 A3006 RMK AO2
 
KNAK - Annapolis/Naval, Maryland, USA
Distance from station: S 30mi, 48km
Updated: Thu, 18-Dec-2014 1:54pm EST
Partly cloudy
Partly cloudy
 Wind from NW
Wind: NW 15 mph , 24 km/h, Gust: 22 mph , 35 km/h
Temperature: 39°F , 4°C
Wind Chill: 31°F , -1°C
Dew Point: 25°F , -4°C
Humidity: 56%
Barometer: 30.09 inHg , 1019 hPa
Clouds: Partly cloudy
Visibility: 10 miles , 16 km
Cloud details: Partly cloudy 4100 ft
2014/12/18 18:54 KNAK 181854Z AUTO 32013G19KT 10SM SCT041 04/M04 A3009 RMK AO2 SLP190 T00391044 $
KW29 - Stevensville, Maryland, USA
Distance from station: SSE 31mi, 50km
Updated: Thu, 18-Dec-2014 2:10pm EST

 Wind from WNW
Wind: WNW 12 mph , 19 km/h
Temperature: 39°F , 4°C
Wind Chill: 32°F , 0°C
Dew Point: 23°F , -5°C
Humidity: 52%
Barometer: 30.09 inHg , 1019 hPa
Visibility: 10 miles , 16 km
2014/12/18 19:10 KW29 181910Z AUTO 30010KT 10SM 04/M05 A3009 RMK AO1
 
KCGS - College Park, Maryland, USA
Distance from station: SW 38mi, 61km
Updated: Thu, 18-Dec-2014 2:10pm EST
Partly cloudy
Partly cloudy
 Wind from NW
Wind: NW 10 mph , 17 km/h
Temperature: 39°F , 4°C
Wind Chill: 32°F , 0°C
Dew Point: 23°F , -5°C
Humidity: 52%
Barometer: 30.10 inHg , 1019.3 hPa
Clouds: Partly cloudy
Visibility: 10 miles , 16 km
Cloud details: Partly cloudy 3900 ft
2014/12/18 19:10 KCGS 181910Z AUTO 32009KT 270V340 10SM SCT039 04/M05 A3010 RMK AO1
KGAI - Gaithersburg, Maryland, USA
Distance from station: WSW 40mi, 65km
Updated: Thu, 18-Dec-2014 2:15pm EST
Mostly cloudy
Mostly cloudy
 Wind from WNW
Wind: WNW 17 mph , 28 km/h, Gust: 22 mph , 35 km/h
Temperature: 36°F , 2°C
Wind Chill: 26°F , -3°C
Dew Point: 19°F , -7°C
Humidity: 52%
Barometer: 30.12 inHg , 1020 hPa
Clouds: Mostly cloudy
Visibility: 10 miles , 16 km
Cloud details: Mostly cloudy 3500 ft
2014/12/18 19:15 KGAI 181915Z 30015G19KT 10SM BKN035 02/M07 A3012 RMK AO1
 
KTHV - York, Pennsylvania, USA
Distance from station: NNW 40mi, 65km
Updated: Thu, 18-Dec-2014 1:53pm EST
Overcast
Overcast
 Wind from WNW
Wind: WNW 15 mph , 24 km/h, Gust: 23 mph , 37 km/h
Temperature: 36°F , 2°C
Wind Chill: 27°F , -3°C
Dew Point: 23°F , -5°C
Humidity: 60%
Barometer: 30.08 inHg , 1018.6 hPa
Clouds: Overcast
Visibility: 10 miles , 16 km
Cloud details: Overcast 3200 ft
2014/12/18 18:53 KTHV 181853Z AUTO 30013G20KT 10SM OVC032 02/M05 A3008 RMK AO2 SLP192 T00221050
KFDK - Frederick, Maryland, USA
Distance from station: W 47mi, 75km
Updated: Thu, 18-Dec-2014 1:45pm EST
Overcast
Overcast
 Wind from NW
Wind: NW 15 mph , 24 km/h, Gust: 23 mph , 37 km/h
Temperature: 39°F , 4°C
Wind Chill: 31°F , -1°C
Dew Point: 19°F , -7°C
Humidity: 45%
Barometer: 30.14 inHg , 1020.7 hPa
Clouds: Overcast
Visibility: 10 miles , 16 km
Cloud details: Overcast 3600 ft
2014/12/18 18:45 KFDK 181845Z 31013G20KT 10SM OVC036 04/M07 A3014
 
KESN - Easton/Newnam, Maryland, USA
Distance from station: SSE 48mi, 78km
Updated: Thu, 18-Dec-2014 1:50pm EST
Partly cloudy
Partly cloudy
 Wind from WNW
Wind: WNW 10 mph , 17 km/h, Gust: 20 mph , 31 km/h
Temperature: 41°F , 5°C
Wind Chill: 35°F , 2°C
Dew Point: 25°F , -4°C
Humidity: 53%
Barometer: 30.11 inHg , 1019.6 hPa
Clouds: Partly cloudy
Visibility: 10 miles , 16 km
Cloud details: Partly cloudy 3800 ft
2014/12/18 18:50 KESN 181850Z 30009G17KT 10SM SCT038 05/M04 A3011
KDCA - Washington/Natl, Washington D.c., USA
Distance from station: SW 49mi, 79km
Updated: Thu, 18-Dec-2014 1:52pm EST
Mostly cloudy
Mostly cloudy
 Wind from NNW
Wind: NNW 18 mph , 30 km/h
Temperature: 43°F , 6°C
Wind Chill: 35°F , 2°C
Dew Point: 21°F , -6°C
Humidity: 42%
Barometer: 30.12 inHg , 1020 hPa
Clouds: Mostly cloudy
Visibility: 10 miles , 16 km
Cloud details: Partly cloudy 4000 ft
Mostly cloudy 25000 ft
2014/12/18 18:52 KDCA 181852Z 33016KT 10SM SCT040 BKN250 06/M06 A3012 RMK AO2 SLP198 T00561056
 
KLNS - Lancaster, Pennsylvania, USA
Distance from station: N 49mi, 79km
Updated: Thu, 18-Dec-2014 1:53pm EST
Overcast
Overcast
 Wind from WNW
Wind: WNW 21 mph , 33 km/h
Temperature: 36°F , 2°C
Wind Chill: 25°F , -4°C
Dew Point: 23°F , -5°C
Humidity: 60%
Barometer: 30.06 inHg , 1017.9 hPa
Clouds: Overcast
Visibility: 10 miles , 16 km
Cloud details: Few Clouds 2900 ft
Overcast 3400 ft
2014/12/18 18:53 KLNS 181853Z 29018KT 10SM FEW029 OVC034 02/M05 A3006 RMK AO2 SLP181 T00221050
KILG - Wilmington, Delaware, USA
Distance from station: ENE 50mi, 81km
Updated: Thu, 18-Dec-2014 1:51pm EST
Partly cloudy
Partly cloudy
 Wind from NW
Wind: NW 16 mph , 26 km/h, Gust: 25 mph , 41 km/h
Temperature: 41°F , 5°C
Wind Chill: 33°F , 1°C
Dew Point: 23°F , -5°C
Humidity: 49%
Barometer: 30.05 inHg , 1017.6 hPa
Clouds: Partly cloudy
Visibility: 10 miles , 16 km
Cloud details: Partly cloudy 3800 ft
2014/12/18 18:51 KILG 181851Z 32014G22KT 10SM SCT038 05/M05 A3005 RMK AO2 SLP177 T00501050